createdAt,value
2022-10-11T00:01:17.503Z,12.72
2022-10-11T00:03:43.966Z,12.69
2022-10-11T00:06:10.549Z,12.63
2022-10-11T00:08:36.937Z,12.62
2022-10-11T00:11:07.054Z,12.56
2022-10-11T00:13:34.497Z,12.50
2022-10-11T00:16:01.582Z,12.50
2022-10-11T00:18:28.219Z,12.60
2022-10-11T00:21:04.885Z,12.56
2022-10-11T00:23:31.583Z,12.51
2022-10-11T00:25:59.987Z,12.48
2022-10-11T00:28:26.907Z,12.58
2022-10-11T00:30:53.757Z,12.60
2022-10-11T00:33:20.411Z,12.72
2022-10-11T00:35:46.772Z,12.77
2022-10-11T00:38:13.198Z,12.78
2022-10-11T00:40:40.027Z,12.80
2022-10-11T00:43:18.850Z,12.82
2022-10-11T00:45:57.394Z,12.85
2022-10-11T00:48:39.060Z,12.85
2022-10-11T00:51:33.269Z,12.90
2022-10-11T00:54:01.773Z,12.90
2022-10-11T00:56:34.109Z,12.88
2022-10-11T00:59:04.344Z,12.84
2022-10-11T01:01:31.045Z,12.81
2022-10-11T01:03:57.894Z,12.78
2022-10-11T01:06:24.653Z,12.74
2022-10-11T01:08:52.157Z,12.74
2022-10-11T01:11:23.176Z,12.74
2022-10-11T01:14:27.370Z,12.69
2022-10-11T01:17:00.714Z,12.72
2022-10-11T01:19:45.813Z,12.72
2022-10-11T01:22:38.564Z,12.68
2022-10-11T01:25:50.181Z,12.60
2022-10-11T01:28:53.696Z,12.58
2022-10-11T01:31:28.714Z,12.57
2022-10-11T01:34:04.057Z,12.57
2022-10-11T01:36:38.454Z,12.55
2022-10-11T01:39:31.416Z,12.64
2022-10-11T01:42:03.481Z,12.66
2022-10-11T01:44:30.768Z,12.62
2022-10-11T01:46:57.162Z,12.64
2022-10-11T01:49:23.829Z,12.58
2022-10-11T01:51:54.325Z,12.60
2022-10-11T01:55:08.228Z,12.61
2022-10-11T01:57:45.769Z,12.64
2022-10-11T02:00:23.195Z,12.59
2022-10-11T02:03:31.972Z,12.60
2022-10-11T02:06:01.423Z,12.62
2022-10-11T02:08:43.582Z,12.61
2022-10-11T02:11:26.299Z,12.66
2022-10-11T02:14:20.477Z,12.60
2022-10-11T02:16:55.328Z,12.55
2022-10-11T02:19:26.233Z,12.56
2022-10-11T02:21:57.640Z,12.61
2022-10-11T02:24:33.517Z,12.52
2022-10-11T02:27:02.806Z,12.54
2022-10-11T02:29:32.596Z,12.58
2022-10-11T02:32:00.425Z,12.59
2022-10-11T02:34:37.929Z,12.52
2022-10-11T02:37:30.197Z,12.53
2022-10-11T02:40:06.464Z,12.51
2022-10-11T02:42:42.808Z,12.47
2022-10-11T02:45:16.849Z,12.50
2022-10-11T02:47:44.083Z,12.50
2022-10-11T02:50:12.476Z,12.48
2022-10-11T02:52:39.039Z,12.48
2022-10-11T02:55:06.317Z,12.52
2022-10-11T02:57:32.799Z,12.48
2022-10-11T02:59:59.107Z,12.54
2022-10-11T03:02:25.517Z,12.47
2022-10-11T03:04:51.933Z,12.43
2022-10-11T03:07:18.269Z,12.44
2022-10-11T03:09:45.093Z,12.44
2022-10-11T03:12:11.489Z,12.44
2022-10-11T03:14:37.930Z,12.43
2022-10-11T03:17:30.833Z,12.42
2022-10-11T03:19:51.683Z,12.30
2022-10-11T03:22:18.044Z,12.28
2022-10-11T03:24:44.436Z,12.28
2022-10-11T03:27:10.983Z,12.38
2022-10-11T03:29:37.372Z,12.34
2022-10-11T03:32:04.024Z,12.33
2022-10-11T03:34:30.527Z,12.32
2022-10-11T03:36:57.038Z,12.17
2022-10-11T03:39:23.493Z,12.16
2022-10-11T03:41:49.877Z,12.12
2022-10-11T03:44:16.426Z,12.12
2022-10-11T03:46:42.720Z,12.12
2022-10-11T03:49:09.164Z,12.04
2022-10-11T03:51:36.393Z,12.02
2022-10-11T03:54:02.812Z,11.88
2022-10-11T03:56:29.216Z,11.84
2022-10-11T03:58:55.863Z,11.82
2022-10-11T04:01:22.411Z,11.83
2022-10-11T04:03:48.955Z,11.83
2022-10-11T04:06:15.598Z,11.73
2022-10-11T04:08:42.062Z,11.70
2022-10-11T04:11:08.583Z,11.68
2022-10-11T04:13:34.915Z,11.66
2022-10-11T04:16:01.556Z,11.58
2022-10-11T04:18:28.199Z,11.55
2022-10-11T04:20:54.622Z,11.49
2022-10-11T04:23:21.024Z,11.48
2022-10-11T04:25:48.263Z,11.39
2022-10-11T04:28:14.819Z,11.35
2022-10-11T04:30:41.322Z,11.37
2022-10-11T04:33:07.761Z,11.27
2022-10-11T04:35:34.235Z,11.28
2022-10-11T04:38:00.670Z,11.28
2022-10-11T04:40:27.091Z,11.30
2022-10-11T04:42:53.747Z,11.24
2022-10-11T04:45:20.836Z,11.25
2022-10-11T04:47:48.352Z,11.22
2022-10-11T04:50:15.422Z,11.22
2022-10-11T04:52:42.626Z,11.15
2022-10-11T04:55:09.732Z,11.11
2022-10-11T04:57:36.658Z,11.09
2022-10-11T05:00:04.668Z,11.08
2022-10-11T05:02:31.270Z,11.04
2022-10-11T05:04:57.825Z,11.05
2022-10-11T05:07:24.281Z,10.99
2022-10-11T05:09:50.670Z,11.00
2022-10-11T05:12:17.016Z,11.04
2022-10-11T05:14:43.552Z,10.97
2022-10-11T05:17:09.913Z,10.93
2022-10-11T05:19:36.285Z,10.92
2022-10-11T05:22:02.702Z,10.88
2022-10-11T05:24:29.157Z,10.84
2022-10-11T05:26:58.647Z,10.85
2022-10-11T05:29:27.401Z,10.87
2022-10-11T05:31:54.005Z,10.83
2022-10-11T05:34:20.375Z,10.87
2022-10-11T05:36:46.753Z,10.92
2022-10-11T05:39:13.388Z,10.90
2022-10-11T05:41:39.789Z,10.85
2022-10-11T05:44:08.317Z,10.85
2022-10-11T05:46:34.733Z,10.96
2022-10-11T05:49:01.126Z,10.93
2022-10-11T05:51:27.513Z,10.92
2022-10-11T05:53:53.980Z,10.94
2022-10-11T05:56:23.015Z,10.99
2022-10-11T05:58:50.182Z,11.05
2022-10-11T06:01:27.374Z,11.08
2022-10-11T06:03:54.061Z,11.12
2022-10-11T06:06:20.552Z,11.19
2022-10-11T06:08:47.979Z,11.25
2022-10-11T06:11:20.582Z,11.30
2022-10-11T06:13:47.501Z,11.32
2022-10-11T06:16:14.680Z,11.38
2022-10-11T06:18:41.201Z,11.42
2022-10-11T06:21:07.958Z,11.48
2022-10-11T06:23:34.414Z,11.52
2022-10-11T06:26:05.868Z,11.62
2022-10-11T06:28:33.385Z,11.69
2022-10-11T06:31:00.254Z,11.73
2022-10-11T06:33:27.243Z,11.78
2022-10-11T06:36:06.383Z,11.83
2022-10-11T06:38:33.140Z,11.86
2022-10-11T06:41:08.901Z,11.95
2022-10-11T06:43:35.368Z,12.00
2022-10-11T06:46:02.146Z,12.06
2022-10-11T06:48:29.261Z,12.07
2022-10-11T06:51:00.925Z,12.15
2022-10-11T06:53:28.084Z,12.17
2022-10-11T06:55:54.584Z,12.25
2022-10-11T06:58:22.030Z,12.29
2022-10-11T07:00:48.518Z,12.30
2022-10-11T07:03:14.858Z,12.42
2022-10-11T07:05:41.260Z,12.48
2022-10-11T07:08:07.758Z,12.47
2022-10-11T07:10:35.562Z,12.57
2022-10-11T07:13:02.015Z,12.61
2022-10-11T07:15:28.434Z,12.65
2022-10-11T07:17:54.834Z,12.76
2022-10-11T07:20:21.225Z,12.82
2022-10-11T07:22:48.086Z,12.89
2022-10-11T07:25:14.508Z,12.91
2022-10-11T07:27:40.836Z,13.00
2022-10-11T07:30:07.888Z,13.05
2022-10-11T07:32:34.320Z,13.16
2022-10-11T07:35:03.446Z,13.23
2022-10-11T07:37:30.169Z,13.36
2022-10-11T07:39:56.588Z,13.40
2022-10-11T07:42:23.043Z,13.47
2022-10-11T07:44:49.533Z,13.53
2022-10-11T07:47:15.859Z,13.64
2022-10-11T07:49:42.258Z,13.66
2022-10-11T07:52:08.790Z,13.70
2022-10-11T07:54:35.280Z,13.77
2022-10-11T07:57:01.864Z,13.89
2022-10-11T07:59:28.284Z,14.03
2022-10-11T08:01:54.741Z,14.08
2022-10-11T08:04:21.433Z,14.18
2022-10-11T08:06:52.539Z,14.27
2022-10-11T08:09:19.814Z,14.26
2022-10-11T08:11:46.272Z,14.53
2022-10-11T08:14:12.576Z,14.57
2022-10-11T08:16:39.388Z,14.36
2022-10-11T08:19:06.937Z,14.09
2022-10-11T08:21:33.801Z,14.12
2022-10-11T08:24:02.181Z,13.95
2022-10-11T08:26:28.561Z,14.25
2022-10-11T08:28:55.277Z,14.34
2022-10-11T08:31:21.870Z,14.63
2022-10-11T08:33:48.576Z,14.46
2022-10-11T08:36:14.897Z,14.47
2022-10-11T08:38:42.314Z,14.46
2022-10-11T08:41:24.057Z,14.47
2022-10-11T08:44:09.069Z,14.56
2022-10-11T08:46:37.914Z,15.14
2022-10-11T08:49:06.724Z,15.24
2022-10-11T08:51:50.637Z,14.87
2022-10-11T08:54:46.854Z,15.02
2022-10-11T08:57:19.968Z,15.23
2022-10-11T08:59:49.341Z,15.46
2022-10-11T09:03:08.609Z,15.11
2022-10-11T09:05:39.455Z,15.44
2022-10-11T09:08:19.352Z,15.04
2022-10-11T09:11:33.996Z,15.09
2022-10-11T09:14:46.717Z,15.49
2022-10-11T09:17:37.663Z,15.29
2022-10-11T09:20:24.461Z,15.38
2022-10-11T09:23:10.976Z,15.08
2022-10-11T09:25:53.095Z,15.57
2022-10-11T09:29:01.866Z,15.46
2022-10-11T09:31:29.631Z,15.84
2022-10-11T09:33:58.912Z,16.39
2022-10-11T09:36:44.583Z,16.46
2022-10-11T09:39:37.096Z,16.51
2022-10-11T09:42:07.671Z,16.74
2022-10-11T09:44:38.610Z,16.78
2022-10-11T09:47:06.660Z,17.10
2022-10-11T09:49:40.691Z,16.93
2022-10-11T09:52:15.163Z,17.36
2022-10-11T09:54:45.192Z,17.89
2022-10-11T09:57:23.035Z,17.36
2022-10-11T10:00:20.246Z,17.47
2022-10-11T10:02:58.354Z,16.92
2022-10-11T10:05:33.737Z,17.22
2022-10-11T10:08:09.502Z,16.96
2022-10-11T10:10:40.868Z,16.45
2022-10-11T10:13:22.480Z,16.74
2022-10-11T10:15:53.446Z,17.19
2022-10-11T10:18:29.146Z,17.06
2022-10-11T10:20:59.503Z,16.76
2022-10-11T10:23:32.646Z,16.92
2022-10-11T10:26:18.433Z,16.27
2022-10-11T10:29:09.328Z,15.85
2022-10-11T10:32:13.004Z,16.09
2022-10-11T10:34:39.817Z,15.90
2022-10-11T10:37:25.232Z,15.79
2022-10-11T10:40:10.457Z,15.52
2022-10-11T10:42:37.212Z,15.43
2022-10-11T10:45:11.190Z,15.40
2022-10-11T10:47:49.806Z,15.27
2022-10-11T10:50:45.884Z,15.22
2022-10-11T10:53:37.120Z,15.22
2022-10-11T10:56:12.697Z,15.25
2022-10-11T10:58:57.333Z,15.41
2022-10-11T11:01:27.553Z,15.35
2022-10-11T11:04:09.392Z,15.46
2022-10-11T11:06:44.845Z,15.74
2022-10-11T11:09:22.444Z,16.00
2022-10-11T11:11:57.913Z,16.25
2022-10-11T11:15:03.172Z,16.17
2022-10-11T11:17:51.067Z,16.08
2022-10-11T11:20:58.164Z,15.66
2022-10-11T11:23:40.561Z,15.76
2022-10-11T11:26:10.224Z,15.81
2022-10-11T11:29:17.330Z,15.53
2022-10-11T11:31:56.126Z,15.60
2022-10-11T11:34:38.268Z,15.45
2022-10-11T11:37:21.514Z,15.28
2022-10-11T11:39:54.040Z,15.21
2022-10-11T11:42:30.937Z,15.19
2022-10-11T11:45:05.413Z,15.42
2022-10-11T11:47:42.373Z,15.68
2022-10-11T11:50:08.998Z,15.59
2022-10-11T11:52:45.794Z,15.44
2022-10-11T11:55:30.405Z,15.42
2022-10-11T11:58:18.606Z,15.43
2022-10-11T12:01:15.556Z,15.36
2022-10-11T12:03:47.737Z,15.63
2022-10-11T12:06:14.476Z,15.56
2022-10-11T12:08:43.433Z,15.60
2022-10-11T12:11:22.446Z,15.49
2022-10-11T12:13:51.141Z,15.60
2022-10-11T12:16:18.141Z,15.60
2022-10-11T12:18:53.977Z,15.60
2022-10-11T12:21:38.711Z,15.52
2022-10-11T12:24:20.377Z,15.72
2022-10-11T12:26:55.217Z,15.64
2022-10-11T12:29:43.520Z,15.85
2022-10-11T12:32:28.415Z,15.74
2022-10-11T12:35:32.399Z,15.99
2022-10-11T12:38:16.840Z,15.85
2022-10-11T12:40:47.075Z,15.89
2022-10-11T12:43:16.511Z,15.79
2022-10-11T12:45:47.858Z,15.79
2022-10-11T12:49:07.307Z,15.72
2022-10-11T12:51:42.137Z,15.51
2022-10-11T12:54:37.395Z,15.58
2022-10-11T12:57:47.377Z,15.56
2022-10-11T13:00:29.579Z,15.63
2022-10-11T13:03:06.229Z,15.63
2022-10-11T13:05:43.216Z,15.69
2022-10-11T13:08:18.681Z,15.66
2022-10-11T13:10:47.191Z,15.67
2022-10-11T13:13:22.838Z,15.79
2022-10-11T13:15:52.240Z,15.64
2022-10-11T13:18:22.649Z,15.85
2022-10-11T13:20:49.442Z,15.76
2022-10-11T13:23:25.021Z,15.80
2022-10-11T13:25:53.519Z,15.83
2022-10-11T13:28:21.712Z,15.96
2022-10-11T13:30:52.320Z,16.10
2022-10-11T13:33:40.777Z,16.16
2022-10-11T13:36:14.957Z,16.03
2022-10-11T13:38:41.501Z,16.04
2022-10-11T13:41:09.413Z,16.09
2022-10-11T13:43:37.713Z,16.03
2022-10-11T13:46:05.185Z,16.02
2022-10-11T13:48:41.850Z,15.91
2022-10-11T13:51:28.969Z,15.95
2022-10-11T13:54:05.003Z,15.69
2022-10-11T13:56:42.189Z,15.75
2022-10-11T13:59:18.490Z,15.65
2022-10-11T14:01:46.667Z,15.65
2022-10-11T14:04:27.279Z,15.67
2022-10-11T14:06:59.601Z,15.68
2022-10-11T14:09:33.880Z,15.78
2022-10-11T14:12:40.429Z,15.85
2022-10-11T14:15:24.484Z,15.81
2022-10-11T14:17:51.445Z,15.65
2022-10-11T14:20:24.182Z,15.64
2022-10-11T14:22:53.356Z,15.66
2022-10-11T14:25:22.831Z,15.67
2022-10-11T14:27:49.796Z,15.67
2022-10-11T14:30:27.671Z,15.64
2022-10-11T14:32:57.679Z,15.76
2022-10-11T14:35:32.197Z,15.58
2022-10-11T14:38:01.640Z,15.69
2022-10-11T14:40:30.824Z,15.59
2022-10-11T14:42:57.399Z,15.60
2022-10-11T14:45:24.515Z,15.58
2022-10-11T14:47:51.769Z,15.52
2022-10-11T14:50:26.629Z,15.56
2022-10-11T14:52:53.680Z,15.59
2022-10-11T14:55:21.769Z,15.50
2022-10-11T14:57:48.303Z,15.61
2022-10-11T15:00:22.467Z,15.65
2022-10-11T15:02:50.845Z,15.59
2022-10-11T15:05:17.261Z,15.60
2022-10-11T15:07:44.144Z,15.52
2022-10-11T15:10:23.684Z,15.52
2022-10-11T15:12:51.972Z,15.49
2022-10-11T15:15:21.150Z,15.55
2022-10-11T15:17:53.742Z,15.64
2022-10-11T15:20:31.517Z,15.43
2022-10-11T15:23:00.344Z,15.39
2022-10-11T15:25:28.901Z,15.44
2022-10-11T15:27:56.045Z,15.45
2022-10-11T15:30:26.547Z,15.41
2022-10-11T15:32:54.070Z,15.44
2022-10-11T15:35:22.823Z,15.44
2022-10-11T15:37:53.006Z,15.40
2022-10-11T15:40:26.682Z,15.34
2022-10-11T15:42:54.500Z,15.44
2022-10-11T15:45:22.687Z,15.44
2022-10-11T15:47:50.275Z,15.39
2022-10-11T15:50:24.080Z,15.26
2022-10-11T15:52:51.693Z,15.22
2022-10-11T15:55:18.708Z,15.26
2022-10-11T15:57:45.298Z,15.28
2022-10-11T16:00:13.005Z,15.30
2022-10-11T16:02:39.577Z,15.22
2022-10-11T16:05:06.191Z,15.00
2022-10-11T16:07:32.991Z,15.09
2022-10-11T16:09:59.466Z,15.08
2022-10-11T16:12:25.898Z,14.85
2022-10-11T16:14:52.347Z,14.87
2022-10-11T16:17:19.142Z,14.88
2022-10-11T16:19:45.572Z,14.74
2022-10-11T16:22:12.116Z,14.51
2022-10-11T16:24:38.853Z,14.52
2022-10-11T16:27:05.326Z,14.41
2022-10-11T16:29:31.663Z,14.47
2022-10-11T16:31:58.274Z,14.43
2022-10-11T16:34:24.680Z,14.36
2022-10-11T16:36:51.111Z,14.34
2022-10-11T16:39:18.495Z,14.32
2022-10-11T16:41:46.109Z,14.32
2022-10-11T16:44:14.569Z,14.29
2022-10-11T16:46:41.828Z,14.31
2022-10-11T16:49:08.372Z,14.26
2022-10-11T16:51:34.843Z,14.22
2022-10-11T16:54:01.510Z,14.11
2022-10-11T16:56:29.161Z,14.12
2022-10-11T16:58:55.873Z,14.03
2022-10-11T17:01:23.240Z,13.99
2022-10-11T17:03:51.228Z,13.96
2022-10-11T17:06:19.371Z,13.83
2022-10-11T17:08:46.253Z,13.79
2022-10-11T17:11:13.049Z,13.62
2022-10-11T17:13:39.626Z,13.65
2022-10-11T17:16:06.477Z,13.60
2022-10-11T17:18:33.198Z,13.33
2022-10-11T17:21:10.743Z,13.40
2022-10-11T17:23:38.033Z,13.31
2022-10-11T17:26:11.381Z,13.30
2022-10-11T17:28:38.967Z,13.28
2022-10-11T17:31:07.912Z,13.26
2022-10-11T17:33:34.866Z,13.21
2022-10-11T17:36:02.047Z,13.16
2022-10-11T17:38:28.631Z,13.16
2022-10-11T17:40:58.837Z,13.10
2022-10-11T17:43:25.285Z,13.09
2022-10-11T17:45:56.228Z,13.09
2022-10-11T17:48:22.706Z,13.04
2022-10-11T17:50:50.745Z,13.01
2022-10-11T17:53:17.868Z,12.94
2022-10-11T17:55:45.764Z,12.92
2022-10-11T17:58:12.760Z,12.94
2022-10-11T18:00:40.004Z,12.88
2022-10-11T18:03:07.197Z,12.81
2022-10-11T18:05:37.961Z,12.79
2022-10-11T18:08:04.673Z,12.74
2022-10-11T18:10:33.634Z,12.76
2022-10-11T18:13:04.340Z,12.70
2022-10-11T18:15:33.183Z,12.75
2022-10-11T18:17:59.814Z,12.76
2022-10-11T18:20:26.961Z,12.70
2022-10-11T18:22:54.163Z,12.67
2022-10-11T18:25:20.908Z,12.72
2022-10-11T18:27:47.717Z,12.69
2022-10-11T18:30:14.601Z,12.72
2022-10-11T18:32:41.229Z,12.74
2022-10-11T18:35:08.234Z,12.77
2022-10-11T18:37:34.830Z,12.80
2022-10-11T18:40:01.405Z,12.81
2022-10-11T18:42:27.976Z,12.77
2022-10-11T18:44:55.247Z,12.86
2022-10-11T18:47:21.772Z,12.81
2022-10-11T18:49:48.309Z,12.78
2022-10-11T18:52:14.906Z,12.79
2022-10-11T18:54:41.444Z,12.78
2022-10-11T18:57:08.035Z,12.82
2022-10-11T18:59:34.803Z,12.65
2022-10-11T19:02:01.384Z,12.65
2022-10-11T19:04:28.755Z,12.58
2022-10-11T19:06:55.385Z,12.69
2022-10-11T19:09:24.364Z,12.70
2022-10-11T19:11:54.416Z,12.71
2022-10-11T19:14:25.733Z,12.71
2022-10-11T19:16:53.108Z,12.73
2022-10-11T19:19:22.615Z,12.73
2022-10-11T19:21:49.645Z,12.71
2022-10-11T19:24:21.957Z,12.75
2022-10-11T19:26:51.565Z,12.81
2022-10-11T19:29:21.116Z,12.85
2022-10-11T19:31:54.625Z,12.87
2022-10-11T19:34:22.236Z,12.78
2022-10-11T19:36:53.380Z,12.84
2022-10-11T19:39:23.095Z,12.84
2022-10-11T19:41:50.172Z,12.78
2022-10-11T19:44:17.088Z,12.76
2022-10-11T19:46:51.666Z,12.79
2022-10-11T19:49:22.820Z,12.79
2022-10-11T19:51:50.548Z,12.79
2022-10-11T19:54:18.349Z,12.79
2022-10-11T19:56:45.362Z,12.79
2022-10-11T19:59:12.999Z,12.79
2022-10-11T20:01:41.449Z,12.71
2022-10-11T20:04:27.530Z,12.67
2022-10-11T20:06:58.967Z,12.69
2022-10-11T20:09:30.292Z,12.79
2022-10-11T20:11:57.397Z,12.83
2022-10-11T20:14:24.239Z,12.80
2022-10-11T20:16:51.450Z,12.91
2022-10-11T20:19:18.766Z,12.85
2022-10-11T20:21:45.483Z,12.80
2022-10-11T20:24:12.055Z,12.70
2022-10-11T20:26:39.386Z,12.73
2022-10-11T20:29:06.529Z,12.68
2022-10-11T20:31:40.791Z,12.69
2022-10-11T20:34:07.955Z,12.75
2022-10-11T20:36:36.007Z,12.76
2022-10-11T20:39:04.986Z,12.79
2022-10-11T20:41:40.023Z,12.80
2022-10-11T20:44:08.937Z,12.75
2022-10-11T20:46:38.110Z,12.89
2022-10-11T20:49:07.852Z,12.96
2022-10-11T20:51:36.840Z,12.79
2022-10-11T20:54:04.948Z,12.71
2022-10-11T20:56:31.532Z,12.66
2022-10-11T20:58:58.747Z,12.59
2022-10-11T21:01:28.486Z,12.56
2022-10-11T21:03:57.824Z,12.38
2022-10-11T21:06:24.641Z,12.43
2022-10-11T21:08:51.075Z,12.43
2022-10-11T21:11:17.462Z,12.38
2022-10-11T21:13:43.997Z,12.35
2022-10-11T21:16:14.502Z,12.30
2022-10-11T21:18:41.573Z,12.33
2022-10-11T21:21:10.765Z,12.20
2022-10-11T21:23:37.559Z,12.13
2022-10-11T21:26:08.198Z,12.05
2022-10-11T21:28:35.217Z,12.02
2022-10-11T21:31:12.811Z,12.14
2022-10-11T21:33:40.587Z,12.01
2022-10-11T21:36:09.689Z,12.22
2022-10-11T21:38:37.102Z,12.20
2022-10-11T21:41:05.757Z,12.19
2022-10-11T21:43:35.053Z,12.12
2022-10-11T21:46:13.827Z,12.17
2022-10-11T21:48:40.828Z,12.17
2022-10-11T21:53:45.802Z,12.08
2022-10-11T21:56:12.226Z,12.05
2022-10-11T21:58:38.629Z,12.04
2022-10-11T22:01:05.905Z,12.03
2022-10-11T22:03:32.414Z,12.04
2022-10-11T22:06:01.999Z,12.19
2022-10-11T22:08:28.506Z,12.08
2022-10-11T22:10:57.503Z,12.03
2022-10-11T22:13:25.268Z,12.06
2022-10-11T22:15:51.842Z,11.97
2022-10-11T22:18:18.487Z,12.05
2022-10-11T22:20:45.343Z,12.04
2022-10-11T22:23:11.933Z,12.08
2022-10-11T22:25:39.048Z,11.97
2022-10-11T22:28:06.746Z,12.15
2022-10-11T22:30:34.025Z,12.10
2022-10-11T22:33:00.746Z,12.01
2022-10-11T22:35:27.334Z,11.92
2022-10-11T22:37:53.678Z,11.99
2022-10-11T22:40:20.423Z,11.85
2022-10-11T22:42:46.861Z,11.84
2022-10-11T22:45:13.333Z,11.75
2022-10-11T22:47:39.631Z,11.72
2022-10-11T22:50:06.352Z,11.72
2022-10-11T22:52:32.752Z,11.73
2022-10-11T22:54:59.138Z,11.87
2022-10-11T22:57:25.568Z,11.74
2022-10-11T22:59:51.939Z,11.96
2022-10-11T23:02:18.351Z,11.75
2022-10-11T23:04:45.053Z,11.81
2022-10-11T23:07:11.456Z,11.82
2022-10-11T23:09:38.010Z,11.83
2022-10-11T23:12:04.499Z,11.93
2022-10-11T23:14:30.887Z,11.83
2022-10-11T23:16:57.289Z,11.86
2022-10-11T23:19:23.685Z,11.75
2022-10-11T23:21:50.109Z,11.74
2022-10-11T23:24:16.780Z,11.69
2022-10-11T23:26:43.290Z,11.71
2022-10-11T23:29:09.681Z,11.69
2022-10-11T23:31:36.130Z,11.68
2022-10-11T23:34:02.525Z,11.61
2022-10-11T23:36:29.065Z,11.64
2022-10-11T23:38:57.703Z,11.66
2022-10-11T23:41:26.309Z,11.65
2022-10-11T23:43:53.204Z,11.66
2022-10-11T23:46:20.073Z,11.54
2022-10-11T23:48:46.896Z,11.56
2022-10-11T23:51:13.487Z,11.64
2022-10-11T23:53:40.040Z,11.68
2022-10-11T23:56:07.605Z,11.65
2022-10-11T23:58:34.060Z,11.67
